Time;durP1;ratioP1;P1;durP2;ratioP2;P2;SDS_P1;SDS_P2;PMS_P1;PMS_P2;Temp;Humidity;BMP_temperature;BMP_pressure;BME280_temperature;BME280_humidity;BME280_pressure;Samples;Min_cycle;Max_cycle;Signal;HPM_P1;HPM_P2
2022/12/11 00:02:20;;;;;;;31.95;15.52;;;;;;;;;;5075015;28;20104;-82
2022/12/11 00:04:46;;;;;;;28.10;14.35;;;;;;;;;;5075365;28;20402;-82
2022/12/11 00:07:12;;;;;;;28.02;13.82;;;;;;;;;;5047758;28;20029;-83
2022/12/11 00:09:38;;;;;;;30.42;13.93;;;;;;;;;;5050938;28;20070;-82
2022/12/11 00:12:06;;;;;;;27.90;12.65;;;;;;;;;;5041654;28;20044;-81
2022/12/11 00:14:32;;;;;;;31.77;13.48;;;;;;;;;;5042710;28;20040;-81
2022/12/11 00:16:58;;;;;;;28.08;13.68;;;;;;;;;;5057774;28;20064;-82
2022/12/11 00:19:24;;;;;;;26.25;12.63;;;;;;;;;;5060468;28;20035;-82
2022/12/11 00:21:50;;;;;;;24.98;12.45;;;;;;;;;;5060945;28;20115;-81
2022/12/11 00:24:16;;;;;;;26.90;12.65;;;;;;;;;;5056184;28;20032;-82
2022/12/11 00:26:42;;;;;;;24.45;11.52;;;;;;;;;;5059649;28;20021;-82
2022/12/11 00:29:13;;;;;;;24.40;11.07;;;;;;;;;;5055613;28;20028;-82
2022/12/11 00:31:39;;;;;;;22.85;11.30;;;;;;;;;;5070085;28;20107;-81
2022/12/11 00:34:05;;;;;;;25.33;12.82;;;;;;;;;;5058192;28;20053;-82
2022/12/11 00:36:31;;;;;;;21.80;11.30;;;;;;;;;;5041362;28;20041;-82
2022/12/11 00:38:57;;;;;;;21.02;11.23;;;;;;;;;;5058168;28;20120;-82
2022/12/11 00:41:23;;;;;;;22.23;11.77;;;;;;;;;;5059722;28;20021;-83
2022/12/11 00:43:49;;;;;;;22.50;9.98;;;;;;;;;;5057887;28;20482;-82
2022/12/11 00:46:15;;;;;;;20.73;11.75;;;;;;;;;;5069556;28;20029;-82
2022/12/11 00:48:41;;;;;;;20.63;10.18;;;;;;;;;;5064169;28;20044;-82
2022/12/11 00:51:07;;;;;;;23.30;11.43;;;;;;;;;;5070201;28;20500;-84
2022/12/11 00:53:33;;;;;;;23.95;10.65;;;;;;;;;;5058623;28;20024;-83
2022/12/11 00:55:59;;;;;;;27.02;12.38;;;;;;;;;;5076658;28;20035;-81
2022/12/11 00:58:25;;;;;;;21.17;10.30;;;;;;;;;;5068641;28;20464;-81
2022/12/11 01:00:52;;;;;;;21.80;10.82;;;;;;;;;;5072080;28;20100;-81
2022/12/11 01:03:18;;;;;;;21.63;10.35;;;;;;;;;;5049271;28;20075;-82
2022/12/11 01:05:51;;;;;;;21.58;10.73;;;;;;;;;;5042687;28;20051;-82
2022/12/11 01:08:17;;;;;;;20.17;10.25;;;;;;;;;;5059720;28;20027;-83
2022/12/11 01:10:43;;;;;;;19.60;10.65;;;;;;;;;;5058179;28;20021;-81
2022/12/11 01:13:10;;;;;;;24.75;10.85;;;;;;;;;;5039945;28;20147;-82
2022/12/11 01:15:40;;;;;;;22.95;11.48;;;;;;;;;;5056994;28;20041;-83
2022/12/11 01:18:06;;;;;;;22.05;10.63;;;;;;;;;;5056507;28;20032;-82
2022/12/11 01:20:32;;;;;;;22.08;10.85;;;;;;;;;;5065749;28;20020;-82
2022/12/11 01:22:59;;;;;;;23.55;11.30;;;;;;;;;;5061526;28;20017;-83
2022/12/11 01:25:25;;;;;;;21.13;11.05;;;;;;;;;;5061768;28;20056;-85
2022/12/11 01:27:52;;;;;;;26.50;12.68;;;;;;;;;;5049640;28;20047;-85
2022/12/11 01:30:18;;;;;;;24.67;11.98;;;;;;;;;;5059640;28;20032;-84
2022/12/11 01:32:44;;;;;;;20.90;10.18;;;;;;;;;;5042555;28;20032;-83
2022/12/11 01:35:11;;;;;;;19.00;9.60;;;;;;;;;;5067287;28;20032;-84
2022/12/11 01:37:37;;;;;;;22.77;10.35;;;;;;;;;;5062208;28;20106;-83
2022/12/11 01:40:04;;;;;;;21.83;9.65;;;;;;;;;;5068127;28;20092;-84
2022/12/11 01:42:30;;;;;;;22.40;9.32;;;;;;;;;;5059786;28;20562;-83
2022/12/11 01:45:02;;;;;;;20.73;9.73;;;;;;;;;;5072260;28;20052;-85
2022/12/11 01:47:28;;;;;;;22.42;10.15;;;;;;;;;;5078272;28;20028;-84
2022/12/11 01:49:54;;;;;;;21.75;10.23;;;;;;;;;;5069343;28;20097;-84
2022/12/11 01:52:21;;;;;;;20.88;9.98;;;;;;;;;;5071650;28;20479;-83
2022/12/11 01:54:47;;;;;;;21.45;9.95;;;;;;;;;;5050944;28;20036;-84
2022/12/11 01:57:14;;;;;;;19.35;9.85;;;;;;;;;;5049864;28;20505;-85
2022/12/11 01:59:43;;;;;;;20.80;9.15;;;;;;;;;;5063115;28;20032;-84
2022/12/11 02:02:11;;;;;;;20.52;9.73;;;;;;;;;;5064268;28;20071;-84
2022/12/11 02:04:38;;;;;;;20.65;10.35;;;;;;;;;;5083833;28;20020;-83
2022/12/11 02:07:04;;;;;;;20.17;9.80;;;;;;;;;;5068828;28;20041;-83
2022/12/11 02:09:32;;;;;;;18.10;9.00;;;;;;;;;;5045787;28;20092;-84
2022/12/11 02:12:04;;;;;;;18.92;10.18;;;;;;;;;;5050020;28;20031;-84
2022/12/11 02:14:30;;;;;;;22.52;10.73;;;;;;;;;;5079326;28;20025;-84
2022/12/11 02:17:06;;;;;;;18.73;9.45;;;;;;;;;;5063450;28;20079;-85
2022/12/11 02:19:51;;;;;;;17.00;9.98;;;;;;;;;;5062089;28;20364;-84
2022/12/11 02:22:27;;;;;;;21.65;9.80;;;;;;;;;;5057079;28;20505;-84
2022/12/11 02:25:02;;;;;;;21.05;9.63;;;;;;;;;;5062601;28;20044;-85
2022/12/11 02:27:31;;;;;;;24.30;10.32;;;;;;;;;;5062241;28;20025;-84
2022/12/11 02:30:08;;;;;;;20.23;10.02;;;;;;;;;;5045689;28;20550;-84
2022/12/11 02:32:45;;;;;;;21.05;9.65;;;;;;;;;;5045377;28;20033;-86
2022/12/11 02:35:14;;;;;;;19.38;9.15;;;;;;;;;;5066639;28;20052;-85
2022/12/11 02:37:43;;;;;;;15.95;8.63;;;;;;;;;;5066724;28;20055;-85
2022/12/11 02:40:11;;;;;;;19.63;9.73;;;;;;;;;;5060223;28;20036;-85
2022/12/11 02:42:38;;;;;;;19.35;9.25;;;;;;;;;;5079753;28;20028;-85
2022/12/11 02:45:05;;;;;;;18.90;9.50;;;;;;;;;;5082382;28;20050;-83
2022/12/11 02:47:31;;;;;;;18.50;10.40;;;;;;;;;;5064291;28;20432;-85
2022/12/11 02:49:58;;;;;;;21.63;9.98;;;;;;;;;;5084962;28;20041;-83
2022/12/11 02:52:25;;;;;;;20.25;10.18;;;;;;;;;;5088909;28;20510;-85
2022/12/11 02:54:52;;;;;;;18.85;8.75;;;;;;;;;;5047785;28;20487;-85
2022/12/11 02:57:53;;;;;;;19.25;10.32;;;;;;;;;;5046863;28;20036;-85
2022/12/11 03:00:20;;;;;;;15.00;7.93;;;;;;;;;;5000597;28;20540;-85
2022/12/11 03:02:46;;;;;;;18.85;9.90;;;;;;;;;;4983855;28;20034;-84
2022/12/11 03:05:13;;;;;;;20.50;10.43;;;;;;;;;;5000960;28;20398;-85
2022/12/11 03:07:40;;;;;;;19.40;9.80;;;;;;;;;;4989950;28;20039;-83
2022/12/11 03:10:09;;;;;;;21.88;10.00;;;;;;;;;;4972105;28;20031;-86
2022/12/11 03:12:40;;;;;;;19.20;10.60;;;;;;;;;;4981161;28;20038;-84
2022/12/11 03:15:08;;;;;;;20.45;10.15;;;;;;;;;;4965362;28;20034;-85
2022/12/11 03:17:59;;;;;;;20.70;9.80;;;;;;;;;;4981356;28;20074;-84
2022/12/11 03:20:29;;;;;;;20.52;9.02;;;;;;;;;;4978222;28;20436;-85
2022/12/11 03:23:06;;;;;;;21.15;10.48;;;;;;;;;;4981420;28;20113;-85
2022/12/11 03:25:35;;;;;;;21.58;9.98;;;;;;;;;;4984581;28;20019;-85
2022/12/11 03:28:12;;;;;;;17.98;8.70;;;;;;;;;;5002097;28;20074;-85
2022/12/11 03:30:40;;;;;;;21.70;9.82;;;;;;;;;;4985771;28;20030;-86
2022/12/11 03:33:18;;;;;;;18.60;8.80;;;;;;;;;;4970417;28;20077;-86
2022/12/11 03:35:48;;;;;;;17.67;8.48;;;;;;;;;;5075482;28;20016;-85
2022/12/11 03:38:48;;;;;;;18.85;8.93;;;;;;;;;;5083347;28;20111;-85
2022/12/11 03:41:15;;;;;;;18.40;8.63;;;;;;;;;;4988957;28;20582;-86
2022/12/11 03:43:42;;;;;;;19.63;8.55;;;;;;;;;;4984248;28;20041;-83
2022/12/11 03:46:09;;;;;;;19.25;9.55;;;;;;;;;;5000878;28;20096;-85
2022/12/11 03:48:37;;;;;;;16.35;8.32;;;;;;;;;;4983480;28;20228;-83
2022/12/11 03:51:04;;;;;;;18.73;7.50;;;;;;;;;;4982798;28;20072;-85
2022/12/11 03:53:31;;;;;;;19.13;9.57;;;;;;;;;;4964850;28;20027;-84
2022/12/11 03:55:58;;;;;;;17.13;7.95;;;;;;;;;;4963668;28;20117;-84
2022/12/11 03:58:24;;;;;;;19.23;9.27;;;;;;;;;;4963502;28;20035;-86
2022/12/11 04:00:50;;;;;;;18.83;8.38;;;;;;;;;;4992738;28;20031;-86
2022/12/11 04:03:16;;;;;;;14.18;8.25;;;;;;;;;;4970813;28;20525;-85
2022/12/11 04:05:47;;;;;;;15.45;8.75;;;;;;;;;;4979842;28;20031;-85
2022/12/11 04:08:13;;;;;;;18.20;9.38;;;;;;;;;;4963606;28;20023;-85
2022/12/11 04:10:40;;;;;;;17.23;8.32;;;;;;;;;;4979419;28;20037;-84
2022/12/11 04:13:06;;;;;;;17.85;8.07;;;;;;;;;;4981532;28;20034;-83
2022/12/11 04:15:32;;;;;;;15.38;7.47;;;;;;;;;;4983404;28;20037;-85
2022/12/11 04:26:13;;;;;;;17.13;7.72;;;;;;;;;;5082305;28;20125;-86
2022/12/11 04:28:40;;;;;;;15.60;7.32;;;;;;;;;;5068371;28;20025;-85
2022/12/11 04:31:06;;;;;;;14.07;7.15;;;;;;;;;;5041561;28;20055;-85
2022/12/11 04:33:32;;;;;;;14.07;7.72;;;;;;;;;;5042867;28;20524;-85
2022/12/11 04:35:58;;;;;;;12.45;6.28;;;;;;;;;;5051041;28;20052;-83
2022/12/11 04:38:24;;;;;;;14.20;7.55;;;;;;;;;;5059975;28;20108;-84
2022/12/11 04:40:56;;;;;;;14.93;7.22;;;;;;;;;;5061934;28;20044;-85
2022/12/11 04:43:23;;;;;;;15.27;7.35;;;;;;;;;;5063228;28;20082;-84
2022/12/11 04:45:48;;;;;;;15.45;7.97;;;;;;;;;;5041926;28;20025;-85
2022/12/11 04:48:14;;;;;;;14.95;7.65;;;;;;;;;;5060004;28;20036;-84
2022/12/11 04:50:40;;;;;;;18.83;8.85;;;;;;;;;;5042546;28;20029;-84
2022/12/11 04:53:07;;;;;;;16.55;8.40;;;;;;;;;;5055276;28;20074;-85
2022/12/11 04:55:32;;;;;;;18.70;8.35;;;;;;;;;;5063745;28;20031;-82
2022/12/11 04:57:58;;;;;;;16.48;8.00;;;;;;;;;;5081317;28;20064;-84
2022/12/11 05:00:25;;;;;;;18.58;8.27;;;;;;;;;;5080811;28;20028;-84
2022/12/11 05:02:50;;;;;;;14.57;7.93;;;;;;;;;;5067354;28;20055;-86
2022/12/11 05:05:17;;;;;;;17.33;7.75;;;;;;;;;;5041328;28;20021;-85
2022/12/11 05:07:43;;;;;;;19.30;8.27;;;;;;;;;;5052795;28;20032;-84
2022/12/11 05:10:09;;;;;;;18.02;8.50;;;;;;;;;;5043416;28;20021;-85
2022/12/11 05:12:35;;;;;;;19.58;8.85;;;;;;;;;;5065655;28;20025;-85
2022/12/11 05:15:02;;;;;;;18.88;8.15;;;;;;;;;;5044887;28;20046;-85
2022/12/11 05:17:28;;;;;;;14.05;7.93;;;;;;;;;;5057577;28;20047;-85
2022/12/11 05:19:54;;;;;;;16.77;9.35;;;;;;;;;;5060547;28;20119;-85
2022/12/11 05:22:20;;;;;;;18.70;10.20;;;;;;;;;;5066679;28;20021;-86
2022/12/11 05:24:46;;;;;;;19.33;10.18;;;;;;;;;;5058066;28;20083;-85
2022/12/11 05:27:12;;;;;;;21.90;10.43;;;;;;;;;;5043545;28;20041;-84
2022/12/11 05:29:38;;;;;;;22.52;8.88;;;;;;;;;;5073874;28;20024;-85
2022/12/11 05:32:04;;;;;;;17.77;9.23;;;;;;;;;;5081740;28;20104;-85
2022/12/11 05:34:30;;;;;;;18.90;10.07;;;;;;;;;;5082351;28;20036;-85
2022/12/11 05:36:56;;;;;;;18.00;10.07;;;;;;;;;;5062839;28;20040;-85
2022/12/11 05:39:22;;;;;;;22.13;10.88;;;;;;;;;;5051632;28;20048;-85
2022/12/11 05:41:48;;;;;;;21.65;10.40;;;;;;;;;;5063257;28;20124;-86
2022/12/11 05:44:14;;;;;;;17.05;9.73;;;;;;;;;;5065197;28;20025;-84
2022/12/11 05:46:40;;;;;;;19.02;10.70;;;;;;;;;;5064029;28;20021;-85
2022/12/11 05:49:06;;;;;;;22.63;11.35;;;;;;;;;;5046276;28;20044;-85
2022/12/11 05:51:34;;;;;;;21.35;9.82;;;;;;;;;;5058674;28;20036;-86
2022/12/11 05:54:00;;;;;;;19.50;10.70;;;;;;;;;;5061262;28;20032;-85
2022/12/11 05:56:31;;;;;;;20.27;10.55;;;;;;;;;;5060951;28;20055;-86
2022/12/11 05:58:57;;;;;;;19.98;10.90;;;;;;;;;;5062495;28;20056;-85
2022/12/11 06:01:25;;;;;;;21.33;10.68;;;;;;;;;;5062995;28;20499;-86
2022/12/11 06:03:51;;;;;;;19.00;10.05;;;;;;;;;;5080889;28;20029;-85
2022/12/11 06:06:17;;;;;;;19.75;10.68;;;;;;;;;;5080938;28;20055;-86
2022/12/11 06:08:43;;;;;;;22.33;10.50;;;;;;;;;;5084649;28;20036;-85
2022/12/11 06:11:11;;;;;;;22.85;11.18;;;;;;;;;;5083627;28;20045;-86
2022/12/11 06:13:37;;;;;;;20.08;10.25;;;;;;;;;;5086179;28;20017;-83
2022/12/11 06:16:05;;;;;;;19.10;8.98;;;;;;;;;;5077949;28;20125;-84
2022/12/11 06:18:31;;;;;;;24.75;10.23;;;;;;;;;;5066232;28;20013;-84
2022/12/11 06:20:57;;;;;;;22.33;11.30;;;;;;;;;;5054783;28;20033;-83
2022/12/11 06:23:23;;;;;;;20.92;8.75;;;;;;;;;;5073738;28;20028;-85
2022/12/11 06:25:49;;;;;;;20.95;9.57;;;;;;;;;;5086655;28;20079;-84
2022/12/11 06:28:16;;;;;;;15.45;8.75;;;;;;;;;;5067038;28;20399;-84
2022/12/11 06:30:42;;;;;;;20.58;9.52;;;;;;;;;;5053327;28;20495;-85
2022/12/11 06:33:08;;;;;;;17.40;9.75;;;;;;;;;;5067342;28;20036;-82
2022/12/11 06:35:34;;;;;;;17.00;8.38;;;;;;;;;;5071530;28;20048;-84
2022/12/11 06:38:00;;;;;;;15.88;7.88;;;;;;;;;;5058295;28;20028;-85
2022/12/11 06:40:26;;;;;;;16.52;8.90;;;;;;;;;;5074413;28;20500;-84
2022/12/11 06:42:53;;;;;;;14.98;7.55;;;;;;;;;;5062485;28;20054;-85
2022/12/11 06:45:19;;;;;;;15.35;7.95;;;;;;;;;;5068086;28;20024;-84
2022/12/11 06:47:45;;;;;;;15.35;6.63;;;;;;;;;;5080589;28;20081;-84
2022/12/11 06:50:11;;;;;;;16.65;6.97;;;;;;;;;;5077241;28;20062;-83
2022/12/11 06:52:37;;;;;;;15.50;6.95;;;;;;;;;;5079245;28;20029;-83
2022/12/11 06:55:04;;;;;;;14.05;6.72;;;;;;;;;;5057735;28;20539;-85
2022/12/11 06:57:30;;;;;;;13.38;7.25;;;;;;;;;;5052248;28;20055;-84
2022/12/11 06:59:56;;;;;;;13.77;7.35;;;;;;;;;;5069549;28;20103;-85
2022/12/11 07:02:22;;;;;;;15.65;7.88;;;;;;;;;;5050345;28;20056;-83
2022/12/11 07:04:48;;;;;;;16.40;8.70;;;;;;;;;;5062082;28;20021;-83
2022/12/11 07:07:14;;;;;;;18.55;8.20;;;;;;;;;;5070194;28;20085;-84
2022/12/11 07:09:40;;;;;;;15.13;7.15;;;;;;;;;;5081429;28;20030;-84
2022/12/11 07:12:06;;;;;;;13.93;7.78;;;;;;;;;;5064779;28;20020;-84
2022/12/11 07:14:32;;;;;;;11.98;6.47;;;;;;;;;;5078813;28;20036;-84
2022/12/11 07:16:59;;;;;;;13.07;7.57;;;;;;;;;;5054198;28;20071;-84
2022/12/11 07:19:25;;;;;;;14.55;8.55;;;;;;;;;;5050603;28;20036;-84
2022/12/11 07:21:51;;;;;;;13.77;7.05;;;;;;;;;;5062460;28;20017;-84
2022/12/11 07:24:17;;;;;;;15.55;8.27;;;;;;;;;;5043593;28;20479;-83
2022/12/11 07:26:43;;;;;;;16.00;8.00;;;;;;;;;;5072385;28;20024;-84
2022/12/11 07:29:09;;;;;;;14.73;7.10;;;;;;;;;;5060733;28;20115;-83
2022/12/11 07:31:35;;;;;;;11.60;6.18;;;;;;;;;;5082015;28;20451;-83
2022/12/11 07:34:03;;;;;;;14.00;6.80;;;;;;;;;;5079249;28;20032;-84
2022/12/11 07:36:29;;;;;;;11.18;6.15;;;;;;;;;;5044432;28;20053;-83
2022/12/11 07:38:56;;;;;;;14.93;7.30;;;;;;;;;;5042538;28;20035;-84
2022/12/11 07:41:22;;;;;;;14.15;7.30;;;;;;;;;;5045773;28;20440;-84
2022/12/11 07:43:48;;;;;;;15.18;6.72;;;;;;;;;;5063653;28;20021;-84
2022/12/11 07:46:16;;;;;;;14.02;7.65;;;;;;;;;;5048759;28;20012;-84
2022/12/11 07:48:42;;;;;;;14.00;8.65;;;;;;;;;;5081461;28;20037;-84
2022/12/11 07:51:16;;;;;;;12.55;7.45;;;;;;;;;;5057031;28;20632;-84
2022/12/11 07:53:43;;;;;;;13.38;6.60;;;;;;;;;;5047631;28;20021;-84
2022/12/11 07:56:09;;;;;;;12.77;7.88;;;;;;;;;;5049248;28;20047;-84
2022/12/11 07:58:35;;;;;;;14.05;8.23;;;;;;;;;;5055190;28;20388;-84
2022/12/11 08:01:01;;;;;;;12.23;6.95;;;;;;;;;;5045993;28;20059;-84
2022/12/11 08:03:27;;;;;;;12.10;7.28;;;;;;;;;;5073908;28;20024;-85
2022/12/11 08:05:53;;;;;;;13.15;7.03;;;;;;;;;;5075331;28;20029;-84
2022/12/11 08:08:19;;;;;;;12.93;6.82;;;;;;;;;;5072963;28;20078;-85
2022/12/11 08:10:45;;;;;;;10.43;6.18;;;;;;;;;;5066567;28;20029;-84
2022/12/11 08:13:11;;;;;;;12.57;5.57;;;;;;;;;;5076934;28;20482;-83
2022/12/11 08:15:37;;;;;;;12.05;6.30;;;;;;;;;;5067862;28;20033;-83
2022/12/11 08:18:04;;;;;;;12.57;6.18;;;;;;;;;;5076900;28;20029;-85
2022/12/11 08:20:30;;;;;;;12.80;5.90;;;;;;;;;;5058139;28;20101;-84
2022/12/11 08:22:56;;;;;;;12.02;6.32;;;;;;;;;;5064200;28;20074;-83
2022/12/11 08:25:23;;;;;;;11.82;5.85;;;;;;;;;;5061187;28;20052;-83
2022/12/11 08:27:49;;;;;;;11.25;6.82;;;;;;;;;;5056215;28;20024;-83
2022/12/11 08:30:15;;;;;;;10.07;5.30;;;;;;;;;;5082483;28;20039;-83
2022/12/11 08:32:41;;;;;;;13.50;6.25;;;;;;;;;;5084344;28;20097;-83
2022/12/11 08:35:07;;;;;;;13.00;6.50;;;;;;;;;;5084046;28;20021;-83
2022/12/11 08:37:33;;;;;;;15.82;6.28;;;;;;;;;;5061185;28;20048;-84
2022/12/11 08:39:59;;;;;;;13.95;5.63;;;;;;;;;;5062034;28;20044;-83
2022/12/11 08:42:25;;;;;;;13.10;6.20;;;;;;;;;;5049100;28;20472;-84
2022/12/11 08:44:51;;;;;;;12.82;6.07;;;;;;;;;;5053985;28;20031;-82
2022/12/11 08:47:18;;;;;;;12.43;6.38;;;;;;;;;;5063475;28;20024;-82
2022/12/11 08:49:44;;;;;;;11.65;6.25;;;;;;;;;;5048313;28;20045;-83
2022/12/11 08:52:10;;;;;;;10.90;6.00;;;;;;;;;;5049737;28;20056;-83
2022/12/11 08:54:36;;;;;;;11.38;5.75;;;;;;;;;;5076534;28;20493;-84
2022/12/11 08:57:03;;;;;;;9.90;5.18;;;;;;;;;;5064103;28;20029;-83
2022/12/11 08:59:29;;;;;;;9.75;5.40;;;;;;;;;;5059906;28;20029;-84
2022/12/11 09:01:55;;;;;;;11.27;5.38;;;;;;;;;;5052702;28;20033;-84
2022/12/11 09:04:22;;;;;;;9.98;4.97;;;;;;;;;;5067282;28;20056;-85
2022/12/11 09:06:48;;;;;;;9.82;4.70;;;;;;;;;;5048300;28;20024;-85
2022/12/11 09:09:14;;;;;;;9.93;4.75;;;;;;;;;;5049545;28;20032;-84
2022/12/11 09:11:40;;;;;;;10.00;5.15;;;;;;;;;;5067178;28;20075;-82
2022/12/11 09:14:06;;;;;;;8.88;5.07;;;;;;;;;;5079284;28;20025;-84
2022/12/11 09:16:33;;;;;;;9.75;4.80;;;;;;;;;;5074805;28;20506;-83
2022/12/11 09:18:59;;;;;;;10.68;5.18;;;;;;;;;;5065971;28;20511;-84
2022/12/11 09:21:27;;;;;;;10.68;5.10;;;;;;;;;;5084420;28;20111;-84
2022/12/11 09:23:54;;;;;;;11.13;4.70;;;;;;;;;;5062857;28;20028;-84
2022/12/11 09:26:20;;;;;;;9.75;5.43;;;;;;;;;;5046327;28;20025;-82
2022/12/11 09:28:46;;;;;;;11.02;5.03;;;;;;;;;;5065588;28;20025;-84
2022/12/11 09:31:14;;;;;;;10.50;5.25;;;;;;;;;;5076743;28;20016;-84
2022/12/11 09:33:40;;;;;;;9.88;5.13;;;;;;;;;;5046833;28;20066;-85
2022/12/11 09:36:06;;;;;;;12.65;5.63;;;;;;;;;;5046715;28;20127;-84
2022/12/11 09:38:32;;;;;;;12.07;5.63;;;;;;;;;;5047755;28;20025;-84
2022/12/11 09:40:59;;;;;;;11.93;5.97;;;;;;;;;;5070532;28;20033;-82
2022/12/11 09:43:34;;;;;;;11.30;5.30;;;;;;;;;;5064356;28;20037;-84
2022/12/11 09:46:02;;;;;;;10.50;5.68;;;;;;;;;;5058013;28;20119;-82
2022/12/11 09:48:29;;;;;;;12.48;6.53;;;;;;;;;;5079960;28;20028;-84
2022/12/11 09:50:56;;;;;;;11.20;5.63;;;;;;;;;;5056212;28;20037;-85
2022/12/11 09:53:34;;;;;;;10.32;5.38;;;;;;;;;;5066369;28;20032;-83
2022/12/11 09:56:02;;;;;;;10.98;5.63;;;;;;;;;;5084957;28;20481;-83
2022/12/11 09:58:38;;;;;;;12.38;5.38;;;;;;;;;;5086406;28;20021;-84
2022/12/11 10:01:14;;;;;;;12.52;6.00;;;;;;;;;;5070883;28;20036;-84
2022/12/11 10:03:40;;;;;;;9.80;4.93;;;;;;;;;;5065736;28;20024;-83
2022/12/11 10:06:12;;;;;;;10.55;5.40;;;;;;;;;;5053762;28;20395;-84
2022/12/11 10:08:42;;;;;;;10.07;5.35;;;;;;;;;;5049742;28;20139;-82
2022/12/11 10:11:18;;;;;;;11.43;5.28;;;;;;;;;;5063525;28;20028;-83
2022/12/11 10:13:56;;;;;;;11.02;5.40;;;;;;;;;;5061622;28;20064;-84
2022/12/11 10:16:35;;;;;;;10.10;5.32;;;;;;;;;;5064186;28;20036;-84
2022/12/11 10:19:02;;;;;;;8.88;4.38;;;;;;;;;;5067102;28;20017;-84
2022/12/11 10:21:38;;;;;;;10.25;5.35;;;;;;;;;;5053854;28;20064;-84
2022/12/11 10:24:05;;;;;;;8.93;4.63;;;;;;;;;;5072581;28;20606;-85
2022/12/11 10:26:31;;;;;;;8.13;4.28;;;;;;;;;;5084608;28;20024;-84
2022/12/11 10:28:58;;;;;;;8.75;5.63;;;;;;;;;;5065369;28;20028;-85
2022/12/11 10:31:30;;;;;;;10.35;4.97;;;;;;;;;;5058708;28;20478;-84
2022/12/11 10:33:56;;;;;;;10.02;5.22;;;;;;;;;;5071576;28;20028;-85
2022/12/11 10:36:29;;;;;;;10.32;5.25;;;;;;;;;;5079754;28;20021;-81
2022/12/11 10:38:55;;;;;;;;;;;;;;;;;;5053954;28;20021;-83
2022/12/11 10:41:37;;;;;;;11.65;5.32;;;;;;;;;;5057509;28;19919;-81
2022/12/11 10:44:14;;;;;;;10.95;5.05;;;;;;;;;;5048600;28;20120;-82
2022/12/11 10:46:40;;;;;;;11.80;5.63;;;;;;;;;;5059684;28;20375;-80
2022/12/11 10:49:06;;;;;;;10.48;5.20;;;;;;;;;;5057362;28;20091;-83
2022/12/11 10:51:32;;;;;;;11.85;6.20;;;;;;;;;;5076540;28;20086;-82
2022/12/11 10:54:17;;;;;;;14.50;6.93;;;;;;;;;;5051028;28;20024;-84
2022/12/11 10:56:45;;;;;;;11.70;6.65;;;;;;;;;;5059681;28;20033;-82
2022/12/11 10:59:32;;;;;;;10.63;5.68;;;;;;;;;;5059959;28;20029;-83
2022/12/11 11:01:58;;;;;;;10.30;5.78;;;;;;;;;;5064176;28;20107;-84
2022/12/11 11:04:29;;;;;;;11.48;5.78;;;;;;;;;;5047186;28;20029;-80
2022/12/11 11:07:22;;;;;;;12.23;6.38;;;;;;;;;;5051059;28;20029;-82
2022/12/11 11:09:49;;;;;;;11.23;6.25;;;;;;;;;;5041261;28;20082;-83
2022/12/11 11:12:26;;;;;;;10.98;6.30;;;;;;;;;;5069697;28;20035;-83
2022/12/11 11:15:21;;;;;;;11.63;6.30;;;;;;;;;;5079878;28;20079;-81
2022/12/11 11:17:52;;;;;;;11.20;6.55;;;;;;;;;;5063591;28;20043;-84
2022/12/11 11:20:19;;;;;;;9.27;5.88;;;;;;;;;;5070209;28;20024;-83
2022/12/11 11:22:50;;;;;;;11.95;6.60;;;;;;;;;;5080368;28;20406;-81
2022/12/11 11:25:18;;;;;;;14.77;7.60;;;;;;;;;;5057637;28;20029;-83
2022/12/11 11:27:48;;;;;;;11.38;6.55;;;;;;;;;;5067095;28;20024;-83
2022/12/11 11:30:19;;;;;;;11.07;5.85;;;;;;;;;;5069828;28;20036;-85
2022/12/11 11:32:45;;;;;;;10.48;5.85;;;;;;;;;;5056799;28;20025;-82
2022/12/11 11:35:11;;;;;;;10.20;5.78;;;;;;;;;;5071375;28;20028;-84
2022/12/11 11:37:38;;;;;;;9.35;5.90;;;;;;;;;;5073049;28;20028;-84
2022/12/11 11:40:10;;;;;;;11.07;6.18;;;;;;;;;;5058605;28;20182;-83
2022/12/11 11:42:55;;;;;;;11.50;6.38;;;;;;;;;;5049300;28;20020;-82
2022/12/11 11:45:31;;;;;;;13.30;7.15;;;;;;;;;;5056292;28;20044;-83
2022/12/11 11:48:12;;;;;;;10.30;5.40;;;;;;;;;;5069751;28;20021;-83
2022/12/11 11:50:43;;;;;;;10.75;6.05;;;;;;;;;;5072049;28;20036;-80
2022/12/11 11:53:36;;;;;;;10.18;5.22;;;;;;;;;;5048390;28;20127;-82
2022/12/11 11:56:14;;;;;;;8.67;5.33;;;;;;;;;;5060606;28;20115;-82
2022/12/11 11:58:40;;;;;;;10.25;5.25;;;;;;;;;;5051596;28;20738;-85
2022/12/11 12:01:13;;;;;;;8.95;5.03;;;;;;;;;;5085986;28;20024;-83
2022/12/11 12:03:39;;;;;;;9.50;4.90;;;;;;;;;;5070982;28;20032;-83
2022/12/11 12:06:05;;;;;;;8.85;4.28;;;;;;;;;;5055125;28;20105;-82
2022/12/11 12:08:34;;;;;;;8.52;4.40;;;;;;;;;;5053427;28;20043;-83
2022/12/11 12:11:04;;;;;;;7.95;4.32;;;;;;;;;;5067190;28;20044;-84
2022/12/11 12:13:36;;;;;;;8.90;4.70;;;;;;;;;;5079692;28;20494;-82
2022/12/11 12:16:04;;;;;;;9.13;4.43;;;;;;;;;;5076248;28;20095;-83
2022/12/11 12:18:42;;;;;;;9.23;5.03;;;;;;;;;;5052113;28;20091;-83
2022/12/11 12:21:38;;;;;;;9.30;4.53;;;;;;;;;;5059049;28;20037;-82
2022/12/11 12:24:13;;;;;;;7.80;4.30;;;;;;;;;;4999264;28;20440;-82
2022/12/11 12:26:47;;;;;;;10.60;4.95;;;;;;;;;;5013886;28;20161;-83
2022/12/11 12:29:32;;;;;;;7.38;3.83;;;;;;;;;;4998433;28;20042;-83
2022/12/11 12:32:16;;;;;;;9.40;4.45;;;;;;;;;;5015578;28;20118;-83
2022/12/11 12:34:48;;;;;;;7.78;4.45;;;;;;;;;;4997427;28;20050;-82
2022/12/11 12:37:29;;;;;;;8.02;5.07;;;;;;;;;;5016117;28;20495;-83
2022/12/11 12:40:08;;;;;;;6.82;3.75;;;;;;;;;;5014331;28;20038;-81
2022/12/11 12:42:52;;;;;;;7.72;4.32;;;;;;;;;;5013164;28;20034;-83
2022/12/11 12:45:18;;;;;;;7.25;3.83;;;;;;;;;;5002827;28;20573;-82
2022/12/11 12:47:46;;;;;;;6.88;3.95;;;;;;;;;;5004923;28;20038;-82
2022/12/11 12:50:20;;;;;;;9.05;4.07;;;;;;;;;;5020059;28;20054;-81
2022/12/11 12:52:47;;;;;;;7.45;3.70;;;;;;;;;;5020265;28;20084;-82
2022/12/11 12:55:21;;;;;;;8.38;4.32;;;;;;;;;;5017429;28;20165;-80
2022/12/11 12:57:50;;;;;;;7.70;4.00;;;;;;;;;;5011630;28;20033;-82
2022/12/11 13:00:36;;;;;;;10.93;4.43;;;;;;;;;;5021352;28;20043;-82
2022/12/11 13:03:15;;;;;;;9.23;4.28;;;;;;;;;;5053811;28;20036;-80
2022/12/11 13:05:42;;;;;;;7.63;3.88;;;;;;;;;;5061359;28;20032;-80
2022/12/11 13:08:10;;;;;;;7.75;4.43;;;;;;;;;;5085443;28;20043;-80
2022/12/11 13:10:41;;;;;;;6.82;3.58;;;;;;;;;;5073782;28;20035;-81
2022/12/11 13:13:25;;;;;;;8.85;3.65;;;;;;;;;;5062213;28;20021;-80
2022/12/11 13:15:52;;;;;;;8.07;3.80;;;;;;;;;;5081788;28;20433;-83
2022/12/11 13:18:35;;;;;;;6.70;3.13;;;;;;;;;;5070643;28;20013;-81
2022/12/11 13:21:02;;;;;;;8.70;3.88;;;;;;;;;;5074736;28;20035;-81
2022/12/11 13:23:33;;;;;;;7.85;3.85;;;;;;;;;;5048222;28;20441;-81
2022/12/11 13:26:00;;;;;;;7.38;3.58;;;;;;;;;;5069214;28;20029;-81
2022/12/11 13:28:28;;;;;;;8.43;4.00;;;;;;;;;;5058605;28;20055;-82
2022/12/11 13:31:06;;;;;;;6.25;3.72;;;;;;;;;;5065737;28;20411;-80
2022/12/11 13:33:33;;;;;;;9.45;4.18;;;;;;;;;;5075863;28;20175;-81
2022/12/11 13:36:05;;;;;;;8.82;4.07;;;;;;;;;;5053934;28;20021;-82
2022/12/11 13:38:32;;;;;;;6.95;3.58;;;;;;;;;;5041724;28;20093;-81
2022/12/11 13:40:59;;;;;;;8.55;4.32;;;;;;;;;;5061810;28;20029;-81
2022/12/11 13:43:26;;;;;;;9.43;3.50;;;;;;;;;;5064159;28;20092;-81
2022/12/11 13:45:56;;;;;;;8.00;3.60;;;;;;;;;;5082869;28;20033;-82
2022/12/11 13:48:26;;;;;;;8.80;3.83;;;;;;;;;;5072654;28;20044;-82
2022/12/11 13:50:53;;;;;;;9.10;4.25;;;;;;;;;;5072900;28;20043;-82
2022/12/11 13:53:20;;;;;;;7.47;3.75;;;;;;;;;;5063068;28;20029;-82
2022/12/11 13:55:46;;;;;;;9.07;3.95;;;;;;;;;;5062307;28;20449;-81
2022/12/11 13:58:19;;;;;;;7.78;3.88;;;;;;;;;;5049127;28;20047;-81
2022/12/11 14:01:04;;;;;;;8.00;3.38;;;;;;;;;;5072674;28;20029;-81
2022/12/11 14:03:31;;;;;;;9.93;4.22;;;;;;;;;;5053980;28;20033;-82
2022/12/11 14:05:57;;;;;;;8.73;4.68;;;;;;;;;;5066777;28;20045;-82
2022/12/11 14:08:27;;;;;;;9.02;4.25;;;;;;;;;;5057145;28;20013;-81
2022/12/11 14:10:53;;;;;;;8.45;3.72;;;;;;;;;;5076159;28;20017;-81
2022/12/11 14:13:27;;;;;;;8.13;3.90;;;;;;;;;;5049741;28;20047;-82
2022/12/11 14:15:54;;;;;;;7.13;3.47;;;;;;;;;;5051508;28;20021;-81
2022/12/11 14:18:24;;;;;;;8.02;4.35;;;;;;;;;;5067571;28;20043;-81
2022/12/11 14:20:54;;;;;;;9.45;3.97;;;;;;;;;;5059578;28;20056;-82
2022/12/11 14:23:23;;;;;;;8.25;4.32;;;;;;;;;;5058620;28;20403;-82
2022/12/11 14:25:55;;;;;;;7.85;4.35;;;;;;;;;;5088733;28;20074;-81
2022/12/11 14:28:26;;;;;;;7.05;3.90;;;;;;;;;;5055588;28;20093;-82
2022/12/11 14:30:53;;;;;;;11.80;5.72;;;;;;;;;;5095732;28;20020;-82
2022/12/11 14:33:21;;;;;;;7.32;3.58;;;;;;;;;;5060260;28;20055;-82
2022/12/11 14:35:48;;;;;;;8.95;4.20;;;;;;;;;;5061550;28;20012;-81
2022/12/11 14:38:19;;;;;;;8.18;4.13;;;;;;;;;;5088830;28;20088;-82
2022/12/11 14:40:49;;;;;;;9.38;4.47;;;;;;;;;;5088752;28;20032;-81
2022/12/11 14:43:21;;;;;;;9.75;3.80;;;;;;;;;;5089369;28;20024;-82
2022/12/11 14:45:48;;;;;;;11.32;4.68;;;;;;;;;;5075663;28;20100;-82
2022/12/11 14:48:20;;;;;;;10.30;4.97;;;;;;;;;;5048703;28;20029;-82
2022/12/11 14:50:46;;;;;;;;;;;;;;;;;;5049045;28;20052;-82